sensor_id;sensor_type;location;lat;lon;timestamp;P1;durP1;ratioP1;P2;durP2;ratioP2
39502;SDS011;26970;49.900;10.774;2022-11-20T00:01:17;40.45;;;20.92;;
39502;SDS011;26970;49.900;10.774;2022-11-20T00:03:44;40.05;;;20.38;;
39502;SDS011;26970;49.900;10.774;2022-11-20T00:06:11;38.15;;;19.58;;
39502;SDS011;26970;49.900;10.774;2022-11-20T00:08:40;43.25;;;20.88;;
39502;SDS011;26970;49.900;10.774;2022-11-20T00:11:07;39.22;;;19.33;;
39502;SDS011;26970;49.900;10.774;2022-11-20T00:13:37;37.45;;;19.67;;
39502;SDS011;26970;49.900;10.774;2022-11-20T00:16:04;35.60;;;19.17;;
39502;SDS011;26970;49.900;10.774;2022-11-20T00:18:32;38.08;;;19.88;;
39502;SDS011;26970;49.900;10.774;2022-11-20T00:21:05;41.42;;;19.30;;
39502;SDS011;26970;49.900;10.774;2022-11-20T00:23:32;39.05;;;19.58;;
39502;SDS011;26970;49.900;10.774;2022-11-20T00:26:05;40.35;;;18.15;;
39502;SDS011;26970;49.900;10.774;2022-11-20T00:28:33;36.38;;;18.40;;
39502;SDS011;26970;49.900;10.774;2022-11-20T00:33:32;40.05;;;19.88;;
39502;SDS011;26970;49.900;10.774;2022-11-20T00:36:01;37.83;;;18.92;;
39502;SDS011;26970;49.900;10.774;2022-11-20T00:38:29;40.38;;;21.17;;
39502;SDS011;26970;49.900;10.774;2022-11-20T00:40:58;42.38;;;21.25;;
39502;SDS011;26970;49.900;10.774;2022-11-20T00:43:28;39.08;;;19.58;;
39502;SDS011;26970;49.900;10.774;2022-11-20T00:45:57;49.97;;;23.00;;
39502;SDS011;26970;49.900;10.774;2022-11-20T00:48:27;42.85;;;21.05;;
39502;SDS011;26970;49.900;10.774;2022-11-20T00:50:53;44.25;;;21.70;;
39502;SDS011;26970;49.900;10.774;2022-11-20T00:53:19;47.60;;;21.73;;
39502;SDS011;26970;49.900;10.774;2022-11-20T00:55:56;53.42;;;21.58;;
39502;SDS011;26970;49.900;10.774;2022-11-20T00:58:28;44.90;;;21.55;;
39502;SDS011;26970;49.900;10.774;2022-11-20T01:01:08;49.42;;;22.38;;
39502;SDS011;26970;49.900;10.774;2022-11-20T01:03:40;52.17;;;22.00;;
39502;SDS011;26970;49.900;10.774;2022-11-20T01:06:12;47.85;;;22.13;;
39502;SDS011;26970;49.900;10.774;2022-11-20T01:08:49;48.17;;;22.10;;
39502;SDS011;26970;49.900;10.774;2022-11-20T01:11:18;52.83;;;23.52;;
39502;SDS011;26970;49.900;10.774;2022-11-20T01:13:47;54.30;;;23.65;;
39502;SDS011;26970;49.900;10.774;2022-11-20T01:16:14;52.30;;;23.70;;
39502;SDS011;26970;49.900;10.774;2022-11-20T01:18:43;53.50;;;23.13;;
39502;SDS011;26970;49.900;10.774;2022-11-20T01:21:11;51.47;;;22.92;;
39502;SDS011;26970;49.900;10.774;2022-11-20T01:23:40;51.72;;;22.92;;
39502;SDS011;26970;49.900;10.774;2022-11-20T01:26:11;49.13;;;21.38;;
39502;SDS011;26970;49.900;10.774;2022-11-20T01:28:40;51.63;;;21.65;;
39502;SDS011;26970;49.900;10.774;2022-11-20T01:31:14;50.97;;;23.23;;
39502;SDS011;26970;49.900;10.774;2022-11-20T01:33:39;55.17;;;22.02;;
39502;SDS011;26970;49.900;10.774;2022-11-20T01:36:06;59.17;;;26.30;;
39502;SDS011;26970;49.900;10.774;2022-11-20T01:38:33;57.35;;;24.50;;
39502;SDS011;26970;49.900;10.774;2022-11-20T01:40:59;51.42;;;24.58;;
39502;SDS011;26970;49.900;10.774;2022-11-20T01:43:25;48.50;;;22.83;;
39502;SDS011;26970;49.900;10.774;2022-11-20T01:46:02;47.60;;;21.23;;
39502;SDS011;26970;49.900;10.774;2022-11-20T01:48:38;54.60;;;25.35;;
39502;SDS011;26970;49.900;10.774;2022-11-20T01:51:13;54.97;;;25.95;;
39502;SDS011;26970;49.900;10.774;2022-11-20T01:54:05;49.80;;;22.83;;
39502;SDS011;26970;49.900;10.774;2022-11-20T01:56:37;47.10;;;24.48;;
39502;SDS011;26970;49.900;10.774;2022-11-20T01:59:07;43.17;;;19.35;;
39502;SDS011;26970;49.900;10.774;2022-11-20T02:01:34;56.90;;;22.52;;
39502;SDS011;26970;49.900;10.774;2022-11-20T02:04:00;46.70;;;21.10;;
39502;SDS011;26970;49.900;10.774;2022-11-20T02:06:46;43.95;;;20.48;;
39502;SDS011;26970;49.900;10.774;2022-11-20T02:09:25;47.38;;;23.02;;
39502;SDS011;26970;49.900;10.774;2022-11-20T02:11:51;47.33;;;22.92;;
39502;SDS011;26970;49.900;10.774;2022-11-20T02:14:17;49.08;;;22.25;;
39502;SDS011;26970;49.900;10.774;2022-11-20T02:16:44;51.75;;;22.35;;
39502;SDS011;26970;49.900;10.774;2022-11-20T02:19:33;42.92;;;20.42;;
39502;SDS011;26970;49.900;10.774;2022-11-20T02:22:00;46.47;;;22.52;;
39502;SDS011;26970;49.900;10.774;2022-11-20T02:24:33;50.05;;;22.60;;
39502;SDS011;26970;49.900;10.774;2022-11-20T02:27:00;57.08;;;24.40;;
39502;SDS011;26970;49.900;10.774;2022-11-20T02:32:21;44.40;;;20.67;;
39502;SDS011;26970;49.900;10.774;2022-11-20T02:34:52;45.95;;;22.70;;
39502;SDS011;26970;49.900;10.774;2022-11-20T02:37:18;44.63;;;20.45;;
39502;SDS011;26970;49.900;10.774;2022-11-20T02:39:49;49.28;;;21.70;;
39502;SDS011;26970;49.900;10.774;2022-11-20T02:42:16;49.17;;;22.63;;
39502;SDS011;26970;49.900;10.774;2022-11-20T02:44:42;48.47;;;22.48;;
39502;SDS011;26970;49.900;10.774;2022-11-20T02:47:08;51.33;;;21.27;;
39502;SDS011;26970;49.900;10.774;2022-11-20T02:49:34;49.45;;;24.20;;
39502;SDS011;26970;49.900;10.774;2022-11-20T02:51:59;52.30;;;24.45;;
39502;SDS011;26970;49.900;10.774;2022-11-20T02:54:25;52.03;;;22.65;;
39502;SDS011;26970;49.900;10.774;2022-11-20T02:56:51;50.75;;;22.52;;
39502;SDS011;26970;49.900;10.774;2022-11-20T02:59:17;52.17;;;22.60;;
39502;SDS011;26970;49.900;10.774;2022-11-20T03:01:42;41.45;;;20.13;;
39502;SDS011;26970;49.900;10.774;2022-11-20T03:04:08;49.72;;;23.30;;
39502;SDS011;26970;49.900;10.774;2022-11-20T03:06:34;55.72;;;23.65;;
39502;SDS011;26970;49.900;10.774;2022-11-20T03:09:00;52.03;;;23.52;;
39502;SDS011;26970;49.900;10.774;2022-11-20T03:11:26;52.50;;;23.42;;
39502;SDS011;26970;49.900;10.774;2022-11-20T03:13:52;54.35;;;24.23;;
39502;SDS011;26970;49.900;10.774;2022-11-20T03:16:21;62.08;;;26.58;;
39502;SDS011;26970;49.900;10.774;2022-11-20T03:18:48;58.53;;;26.08;;
39502;SDS011;26970;49.900;10.774;2022-11-20T03:21:14;52.65;;;23.00;;
39502;SDS011;26970;49.900;10.774;2022-11-20T03:23:41;59.00;;;24.77;;
39502;SDS011;26970;49.900;10.774;2022-11-20T03:28:40;58.15;;;24.70;;
39502;SDS011;26970;49.900;10.774;2022-11-20T03:31:08;63.97;;;24.67;;
39502;SDS011;26970;49.900;10.774;2022-11-20T03:33:36;55.85;;;25.05;;
39502;SDS011;26970;49.900;10.774;2022-11-20T03:36:02;52.85;;;23.85;;
39502;SDS011;26970;49.900;10.774;2022-11-20T03:38:30;58.20;;;24.50;;
39502;SDS011;26970;49.900;10.774;2022-11-20T03:41:03;62.22;;;25.95;;
39502;SDS011;26970;49.900;10.774;2022-11-20T03:43:32;55.28;;;24.65;;
39502;SDS011;26970;49.900;10.774;2022-11-20T03:45:57;48.50;;;23.77;;
39502;SDS011;26970;49.900;10.774;2022-11-20T03:48:24;53.60;;;23.02;;
39502;SDS011;26970;49.900;10.774;2022-11-20T03:50:51;44.95;;;21.73;;
39502;SDS011;26970;49.900;10.774;2022-11-20T03:53:19;47.25;;;22.58;;
39502;SDS011;26970;49.900;10.774;2022-11-20T03:55:45;39.80;;;20.95;;
39502;SDS011;26970;49.900;10.774;2022-11-20T03:58:15;44.17;;;21.77;;
39502;SDS011;26970;49.900;10.774;2022-11-20T04:00:41;43.72;;;20.63;;
39502;SDS011;26970;49.900;10.774;2022-11-20T04:03:06;45.08;;;21.30;;
39502;SDS011;26970;49.900;10.774;2022-11-20T04:05:32;41.42;;;21.02;;
39502;SDS011;26970;49.900;10.774;2022-11-20T04:07:59;44.88;;;21.25;;
39502;SDS011;26970;49.900;10.774;2022-11-20T04:10:25;39.92;;;20.38;;
39502;SDS011;26970;49.900;10.774;2022-11-20T04:12:50;38.85;;;20.20;;
39502;SDS011;26970;49.900;10.774;2022-11-20T04:15:16;45.08;;;21.52;;
39502;SDS011;26970;49.900;10.774;2022-11-20T04:17:41;39.92;;;20.23;;
39502;SDS011;26970;49.900;10.774;2022-11-20T04:20:07;43.38;;;22.30;;
39502;SDS011;26970;49.900;10.774;2022-11-20T04:22:33;43.90;;;20.23;;
39502;SDS011;26970;49.900;10.774;2022-11-20T04:24:59;39.38;;;20.05;;
39502;SDS011;26970;49.900;10.774;2022-11-20T04:27:24;38.67;;;20.17;;
39502;SDS011;26970;49.900;10.774;2022-11-20T04:29:50;38.47;;;20.58;;
39502;SDS011;26970;49.900;10.774;2022-11-20T04:32:16;39.28;;;19.92;;
39502;SDS011;26970;49.900;10.774;2022-11-20T04:34:41;39.13;;;20.38;;
39502;SDS011;26970;49.900;10.774;2022-11-20T04:37:07;39.92;;;21.02;;
39502;SDS011;26970;49.900;10.774;2022-11-20T04:39:32;40.50;;;20.05;;
39502;SDS011;26970;49.900;10.774;2022-11-20T04:41:58;44.13;;;21.75;;
39502;SDS011;26970;49.900;10.774;2022-11-20T04:44:42;43.10;;;20.05;;
39502;SDS011;26970;49.900;10.774;2022-11-20T04:47:08;39.88;;;20.38;;
39502;SDS011;26970;49.900;10.774;2022-11-20T04:49:33;45.10;;;20.42;;
39502;SDS011;26970;49.900;10.774;2022-11-20T04:51:59;43.88;;;20.90;;
39502;SDS011;26970;49.900;10.774;2022-11-20T04:54:25;44.65;;;20.30;;
39502;SDS011;26970;49.900;10.774;2022-11-20T04:56:50;42.72;;;20.70;;
39502;SDS011;26970;49.900;10.774;2022-11-20T04:59:16;43.05;;;21.52;;
39502;SDS011;26970;49.900;10.774;2022-11-20T05:01:41;42.65;;;20.77;;
39502;SDS011;26970;49.900;10.774;2022-11-20T05:04:07;47.65;;;21.65;;
39502;SDS011;26970;49.900;10.774;2022-11-20T05:06:33;44.35;;;21.10;;
39502;SDS011;26970;49.900;10.774;2022-11-20T05:08:59;45.90;;;20.60;;
39502;SDS011;26970;49.900;10.774;2022-11-20T05:11:25;43.42;;;20.92;;
39502;SDS011;26970;49.900;10.774;2022-11-20T05:13:53;48.25;;;23.50;;
39502;SDS011;26970;49.900;10.774;2022-11-20T05:16:20;40.67;;;19.75;;
39502;SDS011;26970;49.900;10.774;2022-11-20T05:18:47;40.55;;;20.73;;
39502;SDS011;26970;49.900;10.774;2022-11-20T05:21:15;43.40;;;21.23;;
39502;SDS011;26970;49.900;10.774;2022-11-20T05:23:41;45.35;;;20.60;;
39502;SDS011;26970;49.900;10.774;2022-11-20T05:26:08;41.70;;;21.92;;
39502;SDS011;26970;49.900;10.774;2022-11-20T05:28:42;43.35;;;20.73;;
39502;SDS011;26970;49.900;10.774;2022-11-20T05:31:08;45.10;;;22.48;;
39502;SDS011;26970;49.900;10.774;2022-11-20T05:33:35;38.90;;;20.13;;
39502;SDS011;26970;49.900;10.774;2022-11-20T05:36:04;47.22;;;21.83;;
39502;SDS011;26970;49.900;10.774;2022-11-20T05:38:31;42.53;;;21.45;;
39502;SDS011;26970;49.900;10.774;2022-11-20T05:41:10;45.35;;;21.88;;
39502;SDS011;26970;49.900;10.774;2022-11-20T05:43:36;44.03;;;20.88;;
39502;SDS011;26970;49.900;10.774;2022-11-20T05:46:04;42.90;;;21.17;;
39502;SDS011;26970;49.900;10.774;2022-11-20T05:48:30;40.47;;;19.52;;
39502;SDS011;26970;49.900;10.774;2022-11-20T05:50:57;39.72;;;19.05;;
39502;SDS011;26970;49.900;10.774;2022-11-20T05:53:24;44.33;;;22.05;;
39502;SDS011;26970;49.900;10.774;2022-11-20T05:55:59;43.05;;;20.70;;
39502;SDS011;26970;49.900;10.774;2022-11-20T05:58:36;44.60;;;22.17;;
39502;SDS011;26970;49.900;10.774;2022-11-20T06:03:33;41.25;;;20.13;;
39502;SDS011;26970;49.900;10.774;2022-11-20T06:06:00;41.28;;;21.02;;
39502;SDS011;26970;49.900;10.774;2022-11-20T06:08:26;50.45;;;23.42;;
39502;SDS011;26970;49.900;10.774;2022-11-20T06:10:52;46.45;;;22.58;;
39502;SDS011;26970;49.900;10.774;2022-11-20T06:13:18;40.08;;;20.45;;
39502;SDS011;26970;49.900;10.774;2022-11-20T06:15:50;45.50;;;21.38;;
39502;SDS011;26970;49.900;10.774;2022-11-20T06:18:16;44.22;;;21.33;;
39502;SDS011;26970;49.900;10.774;2022-11-20T06:20:42;41.47;;;20.83;;
39502;SDS011;26970;49.900;10.774;2022-11-20T06:23:08;43.35;;;22.55;;
39502;SDS011;26970;49.900;10.774;2022-11-20T06:25:36;47.13;;;23.38;;
39502;SDS011;26970;49.900;10.774;2022-11-20T06:28:03;42.45;;;22.42;;
39502;SDS011;26970;49.900;10.774;2022-11-20T06:30:29;47.90;;;23.20;;
39502;SDS011;26970;49.900;10.774;2022-11-20T06:32:54;41.53;;;22.38;;
39502;SDS011;26970;49.900;10.774;2022-11-20T06:35:20;47.15;;;23.58;;
39502;SDS011;26970;49.900;10.774;2022-11-20T06:37:46;43.13;;;22.02;;
39502;SDS011;26970;49.900;10.774;2022-11-20T06:40:11;46.92;;;23.88;;
39502;SDS011;26970;49.900;10.774;2022-11-20T06:42:37;43.78;;;22.20;;
39502;SDS011;26970;49.900;10.774;2022-11-20T06:45:08;45.38;;;20.65;;
39502;SDS011;26970;49.900;10.774;2022-11-20T06:47:57;42.08;;;21.45;;
39502;SDS011;26970;49.900;10.774;2022-11-20T06:50:23;41.33;;;20.42;;
39502;SDS011;26970;49.900;10.774;2022-11-20T06:52:49;40.10;;;20.10;;
39502;SDS011;26970;49.900;10.774;2022-11-20T06:55:15;38.95;;;19.45;;
39502;SDS011;26970;49.900;10.774;2022-11-20T06:57:50;37.70;;;18.70;;
39502;SDS011;26970;49.900;10.774;2022-11-20T07:00:16;41.83;;;20.73;;
39502;SDS011;26970;49.900;10.774;2022-11-20T07:02:42;42.00;;;20.38;;
39502;SDS011;26970;49.900;10.774;2022-11-20T07:05:07;37.92;;;19.90;;
39502;SDS011;26970;49.900;10.774;2022-11-20T07:07:33;43.45;;;20.15;;
39502;SDS011;26970;49.900;10.774;2022-11-20T07:09:58;40.10;;;19.98;;
39502;SDS011;26970;49.900;10.774;2022-11-20T07:12:24;40.40;;;20.35;;
39502;SDS011;26970;49.900;10.774;2022-11-20T07:14:50;42.70;;;20.30;;
39502;SDS011;26970;49.900;10.774;2022-11-20T07:17:15;38.67;;;19.95;;
39502;SDS011;26970;49.900;10.774;2022-11-20T07:19:42;36.55;;;19.90;;
39502;SDS011;26970;49.900;10.774;2022-11-20T07:22:08;38.35;;;19.70;;
39502;SDS011;26970;49.900;10.774;2022-11-20T07:24:34;36.08;;;18.85;;
39502;SDS011;26970;49.900;10.774;2022-11-20T07:27:00;39.53;;;20.00;;
39502;SDS011;26970;49.900;10.774;2022-11-20T07:29:26;35.53;;;18.67;;
39502;SDS011;26970;49.900;10.774;2022-11-20T07:31:52;44.40;;;21.15;;
39502;SDS011;26970;49.900;10.774;2022-11-20T07:34:17;37.45;;;19.05;;
39502;SDS011;26970;49.900;10.774;2022-11-20T07:36:44;36.85;;;19.67;;
39502;SDS011;26970;49.900;10.774;2022-11-20T07:39:10;36.25;;;19.05;;
39502;SDS011;26970;49.900;10.774;2022-11-20T07:41:36;34.35;;;19.30;;
39502;SDS011;26970;49.900;10.774;2022-11-20T07:44:01;39.63;;;21.00;;
39502;SDS011;26970;49.900;10.774;2022-11-20T07:46:27;52.72;;;26.50;;
39502;SDS011;26970;49.900;10.774;2022-11-20T07:48:53;52.28;;;26.83;;
39502;SDS011;26970;49.900;10.774;2022-11-20T07:51:18;48.30;;;25.88;;
39502;SDS011;26970;49.900;10.774;2022-11-20T07:53:44;54.42;;;27.60;;
39502;SDS011;26970;49.900;10.774;2022-11-20T07:56:10;46.95;;;24.13;;
39502;SDS011;26970;49.900;10.774;2022-11-20T07:58:35;43.65;;;22.92;;
39502;SDS011;26970;49.900;10.774;2022-11-20T08:01:05;43.50;;;22.25;;
39502;SDS011;26970;49.900;10.774;2022-11-20T08:03:31;42.55;;;21.25;;
39502;SDS011;26970;49.900;10.774;2022-11-20T08:06:01;41.58;;;20.73;;
39502;SDS011;26970;49.900;10.774;2022-11-20T08:08:27;41.72;;;21.67;;
39502;SDS011;26970;49.900;10.774;2022-11-20T08:10:53;42.60;;;20.77;;
39502;SDS011;26970;49.900;10.774;2022-11-20T08:13:39;43.38;;;20.65;;
39502;SDS011;26970;49.900;10.774;2022-11-20T08:16:23;109.80;;;56.83;;
39502;SDS011;26970;49.900;10.774;2022-11-20T08:18:48;75.43;;;40.92;;
39502;SDS011;26970;49.900;10.774;2022-11-20T08:21:14;53.30;;;25.55;;
39502;SDS011;26970;49.900;10.774;2022-11-20T08:23:40;54.85;;;29.17;;
39502;SDS011;26970;49.900;10.774;2022-11-20T08:26:06;63.25;;;33.40;;
39502;SDS011;26970;49.900;10.774;2022-11-20T08:28:31;83.63;;;47.17;;
39502;SDS011;26970;49.900;10.774;2022-11-20T08:30:58;85.55;;;51.10;;
39502;SDS011;26970;49.900;10.774;2022-11-20T08:33:27;68.70;;;40.83;;
39502;SDS011;26970;49.900;10.774;2022-11-20T08:35:53;62.78;;;33.50;;
39502;SDS011;26970;49.900;10.774;2022-11-20T08:38:22;83.88;;;50.75;;
39502;SDS011;26970;49.900;10.774;2022-11-20T08:40:48;60.03;;;32.17;;
39502;SDS011;26970;49.900;10.774;2022-11-20T08:43:34;56.50;;;30.17;;
39502;SDS011;26970;49.900;10.774;2022-11-20T08:45:59;46.05;;;23.25;;
39502;SDS011;26970;49.900;10.774;2022-11-20T08:48:25;44.97;;;22.75;;
39502;SDS011;26970;49.900;10.774;2022-11-20T08:50:50;47.22;;;23.67;;
39502;SDS011;26970;49.900;10.774;2022-11-20T08:53:16;48.97;;;22.25;;
39502;SDS011;26970;49.900;10.774;2022-11-20T08:55:42;49.97;;;22.83;;
39502;SDS011;26970;49.900;10.774;2022-11-20T08:58:07;47.95;;;21.85;;
39502;SDS011;26970;49.900;10.774;2022-11-20T09:00:33;55.00;;;23.70;;
39502;SDS011;26970;49.900;10.774;2022-11-20T09:02:59;49.20;;;24.25;;
39502;SDS011;26970;49.900;10.774;2022-11-20T09:05:26;54.17;;;22.02;;
39502;SDS011;26970;49.900;10.774;2022-11-20T09:07:52;43.95;;;21.60;;
39502;SDS011;26970;49.900;10.774;2022-11-20T09:10:21;50.58;;;20.48;;
39502;SDS011;26970;49.900;10.774;2022-11-20T09:12:48;47.60;;;21.48;;
39502;SDS011;26970;49.900;10.774;2022-11-20T09:15:14;47.25;;;21.00;;
39502;SDS011;26970;49.900;10.774;2022-11-20T09:17:40;57.05;;;23.48;;
39502;SDS011;26970;49.900;10.774;2022-11-20T09:20:05;48.00;;;22.45;;
39502;SDS011;26970;49.900;10.774;2022-11-20T09:22:31;44.40;;;21.98;;
39502;SDS011;26970;49.900;10.774;2022-11-20T09:24:57;51.25;;;22.65;;
39502;SDS011;26970;49.900;10.774;2022-11-20T09:27:23;50.80;;;23.15;;
39502;SDS011;26970;49.900;10.774;2022-11-20T09:29:49;49.38;;;24.20;;
39502;SDS011;26970;49.900;10.774;2022-11-20T09:32:14;52.22;;;23.77;;
39502;SDS011;26970;49.900;10.774;2022-11-20T09:34:40;51.15;;;24.88;;
39502;SDS011;26970;49.900;10.774;2022-11-20T09:37:05;51.90;;;25.08;;
39502;SDS011;26970;49.900;10.774;2022-11-20T09:39:31;54.45;;;23.90;;
39502;SDS011;26970;49.900;10.774;2022-11-20T09:53:01;44.30;;;22.48;;
39502;SDS011;26970;49.900;10.774;2022-11-20T09:55:30;44.28;;;22.10;;
39502;SDS011;26970;49.900;10.774;2022-11-20T09:57:56;41.33;;;21.95;;
39502;SDS011;26970;49.900;10.774;2022-11-20T10:00:24;39.40;;;21.15;;
39502;SDS011;26970;49.900;10.774;2022-11-20T10:05:41;46.80;;;24.45;;
39502;SDS011;26970;49.900;10.774;2022-11-20T10:08:16;47.65;;;21.90;;
39502;SDS011;26970;49.900;10.774;2022-11-20T10:11:05;37.15;;;18.95;;
39502;SDS011;26970;49.900;10.774;2022-11-20T10:25:04;31.23;;;18.15;;
39502;SDS011;26970;49.900;10.774;2022-11-20T10:30:21;34.58;;;18.48;;
39502;SDS011;26970;49.900;10.774;2022-11-20T10:32:59;34.20;;;18.45;;
39502;SDS011;26970;49.900;10.774;2022-11-20T10:35:44;37.25;;;19.55;;
39502;SDS011;26970;49.900;10.774;2022-11-20T10:38:23;45.97;;;23.80;;
39502;SDS011;26970;49.900;10.774;2022-11-20T10:41:00;41.65;;;20.90;;
39502;SDS011;26970;49.900;10.774;2022-11-20T10:43:46;37.53;;;19.85;;
39502;SDS011;26970;49.900;10.774;2022-11-20T10:46:21;32.58;;;17.60;;
39502;SDS011;26970;49.900;10.774;2022-11-20T10:48:47;37.83;;;18.60;;
39502;SDS011;26970;49.900;10.774;2022-11-20T10:51:17;34.88;;;18.95;;
39502;SDS011;26970;49.900;10.774;2022-11-20T10:53:57;33.22;;;18.67;;
39502;SDS011;26970;49.900;10.774;2022-11-20T10:58:54;32.83;;;17.90;;
39502;SDS011;26970;49.900;10.774;2022-11-20T11:01:29;37.03;;;22.42;;
39502;SDS011;26970;49.900;10.774;2022-11-20T11:03:55;34.63;;;17.75;;
39502;SDS011;26970;49.900;10.774;2022-11-20T11:09:00;31.33;;;17.13;;
39502;SDS011;26970;49.900;10.774;2022-11-20T11:11:34;27.25;;;15.20;;
39502;SDS011;26970;49.900;10.774;2022-11-20T11:14:13;31.08;;;16.45;;
39502;SDS011;26970;49.900;10.774;2022-11-20T11:16:50;27.92;;;15.10;;
39502;SDS011;26970;49.900;10.774;2022-11-20T11:19:17;35.00;;;22.45;;
39502;SDS011;26970;49.900;10.774;2022-11-20T11:21:53;26.90;;;16.48;;
39502;SDS011;26970;49.900;10.774;2022-11-20T11:26:57;26.08;;;15.00;;
39502;SDS011;26970;49.900;10.774;2022-11-20T11:29:32;27.23;;;15.52;;
39502;SDS011;26970;49.900;10.774;2022-11-20T11:35:03;27.00;;;16.67;;
39502;SDS011;26970;49.900;10.774;2022-11-20T11:37:38;28.50;;;15.20;;
39502;SDS011;26970;49.900;10.774;2022-11-20T11:40:28;26.08;;;14.20;;
39502;SDS011;26970;49.900;10.774;2022-11-20T11:42:58;26.63;;;14.90;;
39502;SDS011;26970;49.900;10.774;2022-11-20T11:45:26;27.52;;;14.00;;
39502;SDS011;26970;49.900;10.774;2022-11-20T11:47:53;24.13;;;13.90;;
39502;SDS011;26970;49.900;10.774;2022-11-20T11:50:23;26.17;;;13.70;;
39502;SDS011;26970;49.900;10.774;2022-11-20T11:53:09;26.05;;;14.45;;
39502;SDS011;26970;49.900;10.774;2022-11-20T11:58:19;27.55;;;16.10;;
39502;SDS011;26970;49.900;10.774;2022-11-20T12:01:03;30.50;;;17.42;;
39502;SDS011;26970;49.900;10.774;2022-11-20T12:03:39;34.72;;;18.52;;
39502;SDS011;26970;49.900;10.774;2022-11-20T12:06:14;32.88;;;18.92;;
39502;SDS011;26970;49.900;10.774;2022-11-20T12:11:20;49.08;;;24.85;;
39502;SDS011;26970;49.900;10.774;2022-11-20T12:14:01;46.28;;;23.70;;
39502;SDS011;26970;49.900;10.774;2022-11-20T12:16:48;49.95;;;25.63;;
39502;SDS011;26970;49.900;10.774;2022-11-20T12:19:15;42.22;;;22.60;;
39502;SDS011;26970;49.900;10.774;2022-11-20T12:24:38;45.78;;;23.63;;
39502;SDS011;26970;49.900;10.774;2022-11-20T12:35:00;47.47;;;24.65;;
39502;SDS011;26970;49.900;10.774;2022-11-20T12:55:25;38.10;;;19.80;;
39502;SDS011;26970;49.900;10.774;2022-11-20T12:57:55;40.30;;;20.00;;
39502;SDS011;26970;49.900;10.774;2022-11-20T13:00:36;39.72;;;21.25;;
39502;SDS011;26970;49.900;10.774;2022-11-20T13:03:16;37.85;;;19.73;;
39502;SDS011;26970;49.900;10.774;2022-11-20T13:08:40;37.00;;;19.63;;
39502;SDS011;26970;49.900;10.774;2022-11-20T13:19:01;42.92;;;20.23;;
39502;SDS011;26970;49.900;10.774;2022-11-20T13:21:38;41.00;;;19.17;;
39502;SDS011;26970;49.900;10.774;2022-11-20T13:26:44;39.10;;;20.17;;
39502;SDS011;26970;49.900;10.774;2022-11-20T13:29:17;37.30;;;20.33;;
39502;SDS011;26970;49.900;10.774;2022-11-20T13:31:44;36.72;;;18.60;;
39502;SDS011;26970;49.900;10.774;2022-11-20T13:34:25;42.95;;;22.35;;
39502;SDS011;26970;49.900;10.774;2022-11-20T13:36:55;43.22;;;20.45;;
39502;SDS011;26970;49.900;10.774;2022-11-20T13:42:03;38.08;;;19.67;;
39502;SDS011;26970;49.900;10.774;2022-11-20T13:44:50;37.50;;;19.83;;
39502;SDS011;26970;49.900;10.774;2022-11-20T13:47:20;39.93;;;20.43;;
39502;SDS011;26970;49.900;10.774;2022-11-20T13:49:50;35.47;;;18.38;;
39502;SDS011;26970;49.900;10.774;2022-11-20T13:52:39;37.13;;;18.88;;
39502;SDS011;26970;49.900;10.774;2022-11-20T13:55:32;36.05;;;18.52;;
39502;SDS011;26970;49.900;10.774;2022-11-20T14:01:01;42.80;;;20.02;;
39502;SDS011;26970;49.900;10.774;2022-11-20T14:03:38;35.25;;;18.00;;
39502;SDS011;26970;49.900;10.774;2022-11-20T14:06:10;37.50;;;19.63;;
39502;SDS011;26970;49.900;10.774;2022-11-20T14:08:40;37.33;;;18.95;;
39502;SDS011;26970;49.900;10.774;2022-11-20T14:11:17;35.28;;;18.58;;
39502;SDS011;26970;49.900;10.774;2022-11-20T14:16:41;40.45;;;21.90;;
39502;SDS011;26970;49.900;10.774;2022-11-20T14:21:51;35.80;;;20.17;;
39502;SDS011;26970;49.900;10.774;2022-11-20T14:24:32;32.10;;;16.88;;
39502;SDS011;26970;49.900;10.774;2022-11-20T14:26:58;35.75;;;19.33;;
39502;SDS011;26970;49.900;10.774;2022-11-20T14:29:27;37.60;;;18.77;;
39502;SDS011;26970;49.900;10.774;2022-11-20T14:31:58;33.72;;;18.15;;
39502;SDS011;26970;49.900;10.774;2022-11-20T14:34:24;34.05;;;18.08;;
39502;SDS011;26970;49.900;10.774;2022-11-20T14:36:57;33.42;;;17.95;;
39502;SDS011;26970;49.900;10.774;2022-11-20T14:39:34;34.70;;;17.85;;
39502;SDS011;26970;49.900;10.774;2022-11-20T14:42:02;39.87;;;18.80;;
39502;SDS011;26970;49.900;10.774;2022-11-20T14:44:38;31.23;;;17.15;;
39502;SDS011;26970;49.900;10.774;2022-11-20T14:47:04;28.73;;;16.52;;
39502;SDS011;26970;49.900;10.774;2022-11-20T14:49:30;37.00;;;18.63;;
39502;SDS011;26970;49.900;10.774;2022-11-20T14:52:00;31.50;;;16.50;;
39502;SDS011;26970;49.900;10.774;2022-11-20T14:54:34;37.30;;;18.17;;
39502;SDS011;26970;49.900;10.774;2022-11-20T14:57:18;30.50;;;16.38;;
39502;SDS011;26970;49.900;10.774;2022-11-20T15:02:43;31.35;;;16.40;;
39502;SDS011;26970;49.900;10.774;2022-11-20T15:05:10;38.60;;;18.17;;
39502;SDS011;26970;49.900;10.774;2022-11-20T15:07:40;36.58;;;17.92;;
39502;SDS011;26970;49.900;10.774;2022-11-20T15:12:53;32.30;;;16.70;;
39502;SDS011;26970;49.900;10.774;2022-11-20T15:18:01;34.67;;;17.13;;
39502;SDS011;26970;49.900;10.774;2022-11-20T15:20:28;32.00;;;16.80;;
39502;SDS011;26970;49.900;10.774;2022-11-20T15:22:56;34.70;;;18.08;;
39502;SDS011;26970;49.900;10.774;2022-11-20T15:25:22;34.08;;;16.15;;
39502;SDS011;26970;49.900;10.774;2022-11-20T15:27:50;36.85;;;16.58;;
39502;SDS011;26970;49.900;10.774;2022-11-20T15:30:24;33.65;;;17.98;;
39502;SDS011;26970;49.900;10.774;2022-11-20T15:32:50;34.15;;;17.73;;
39502;SDS011;26970;49.900;10.774;2022-11-20T15:35:16;35.58;;;17.95;;
39502;SDS011;26970;49.900;10.774;2022-11-20T15:37:41;34.45;;;16.80;;
39502;SDS011;26970;49.900;10.774;2022-11-20T15:40:08;28.08;;;15.20;;
39502;SDS011;26970;49.900;10.774;2022-11-20T15:42:34;29.02;;;15.63;;
39502;SDS011;26970;49.900;10.774;2022-11-20T15:44:59;35.50;;;16.88;;
39502;SDS011;26970;49.900;10.774;2022-11-20T15:47:27;39.17;;;18.10;;
39502;SDS011;26970;49.900;10.774;2022-11-20T15:49:55;30.90;;;16.33;;
39502;SDS011;26970;49.900;10.774;2022-11-20T15:52:21;31.33;;;15.77;;
39502;SDS011;26970;49.900;10.774;2022-11-20T15:54:47;33.67;;;16.33;;
39502;SDS011;26970;49.900;10.774;2022-11-20T15:57:12;30.38;;;15.52;;
39502;SDS011;26970;49.900;10.774;2022-11-20T15:59:38;30.98;;;15.68;;
39502;SDS011;26970;49.900;10.774;2022-11-20T16:02:12;31.40;;;17.23;;
39502;SDS011;26970;49.900;10.774;2022-11-20T16:04:41;29.00;;;15.68;;
39502;SDS011;26970;49.900;10.774;2022-11-20T16:07:07;30.48;;;16.38;;
39502;SDS011;26970;49.900;10.774;2022-11-20T16:09:32;34.30;;;16.83;;
39502;SDS011;26970;49.900;10.774;2022-11-20T16:11:58;28.70;;;15.80;;
39502;SDS011;26970;49.900;10.774;2022-11-20T16:14:25;33.08;;;16.70;;
39502;SDS011;26970;49.900;10.774;2022-11-20T16:17:10;32.13;;;16.33;;